createdAt,value
2022-10-07T13:54:52.789Z,101341.53
2022-10-07T13:57:57.541Z,101341.53
2022-10-07T14:01:04.595Z,101352.31
2022-10-07T14:05:51.700Z,101343.06
2022-10-07T14:08:55.355Z,101343.06
2022-10-07T14:12:06.587Z,101348.63
2022-10-07T14:15:15.832Z,101343.00
2022-10-07T14:18:18.921Z,101334.13
2022-10-07T14:21:23.570Z,101318.16
2022-10-07T14:24:27.378Z,101333.06
2022-10-07T14:28:17.976Z,101317.47
2022-10-07T14:31:39.906Z,101320.06
2022-10-07T14:35:03.509Z,101324.66
2022-10-07T14:38:27.539Z,101306.97
2022-10-07T14:41:32.357Z,101314.13
2022-10-07T14:44:36.485Z,101310.66
2022-10-07T14:47:41.630Z,101321.19
2022-10-07T14:50:45.211Z,101314.66
2022-10-07T14:53:52.570Z,101306.38
2022-10-07T14:56:55.632Z,101312.44
2022-10-07T15:00:00.626Z,101314.25
2022-10-07T15:03:04.281Z,101300.63
2022-10-07T15:06:07.748Z,101312.94
2022-10-07T15:09:13.454Z,101310.66
2022-10-07T15:12:17.005Z,101304.13
2022-10-07T15:15:20.296Z,101304.75
2022-10-07T15:18:23.878Z,101295.78
2022-10-07T15:21:29.447Z,101297.81
2022-10-07T15:24:33.349Z,101294.34
2022-10-07T15:27:37.836Z,101296.09
2022-10-07T15:30:41.246Z,101301.87
2022-10-07T15:33:44.640Z,101307.78
2022-10-07T15:36:48.764Z,101304.91
2022-10-07T15:39:51.812Z,101297.94
2022-10-07T15:42:58.288Z,101277.53
2022-10-07T15:46:01.727Z,101298.16
2022-10-07T15:49:06.069Z,101289.19
2022-10-07T15:52:11.794Z,101292.13
2022-10-07T15:55:16.406Z,101303.78
2022-10-07T15:58:21.555Z,101297.03
2022-10-07T16:01:28.403Z,101299.75
2022-10-07T16:04:32.064Z,101294.47
2022-10-07T16:07:35.257Z,101299.59
2022-10-07T16:10:38.604Z,101298.37
2022-10-07T16:13:43.706Z,101296.16
2022-10-07T16:16:46.887Z,101303.84
2022-10-07T16:19:49.960Z,101311.84
2022-10-07T16:22:53.195Z,101308.78
2022-10-07T16:25:56.244Z,101311.47
2022-10-07T16:29:20.341Z,101307.34
2022-10-07T16:32:23.622Z,101311.53
2022-10-07T16:35:30.496Z,101315.97
2022-10-07T16:38:33.613Z,101311.94
2022-10-07T16:41:41.686Z,101319.38
2022-10-07T16:44:49.884Z,101316.47
2022-10-07T16:47:56.607Z,101313.12
2022-10-07T16:50:59.631Z,101313.31
2022-10-07T16:54:13.502Z,101315.50
2022-10-07T16:57:16.523Z,101318.91
2022-10-07T17:00:20.219Z,101300.78
2022-10-07T17:03:23.625Z,101318.84
2022-10-07T17:06:29.709Z,101319.66
2022-10-07T17:09:32.871Z,101326.66
2022-10-07T17:12:37.944Z,101287.38
2022-10-07T17:15:40.988Z,101321.19
2022-10-07T17:18:44.550Z,101322.94
2022-10-07T17:21:48.634Z,101319.75
2022-10-07T17:24:53.219Z,101328.41
2022-10-07T17:27:56.249Z,101314.56
2022-10-07T17:31:13.639Z,101314.16
2022-10-07T17:34:22.256Z,101315.84
2022-10-07T17:37:26.800Z,101318.34
2022-10-07T17:40:32.040Z,101319.38
2022-10-07T17:43:35.831Z,101321.75
2022-10-07T17:46:40.439Z,101312.19
2022-10-07T21:11:21.978Z,101274.41
2022-10-07T21:14:25.791Z,101268.84
2022-10-07T21:17:28.816Z,101276.44
2022-10-07T21:20:32.588Z,101274.53
2022-10-07T21:23:35.696Z,101274.59
2022-10-07T21:26:39.172Z,101274.75
2022-10-07T21:29:45.721Z,101269.34
2022-10-07T21:32:51.516Z,101274.22
2022-10-07T21:36:04.312Z,101281.47
2022-10-07T21:39:08.061Z,101275.62
2022-10-07T21:42:11.545Z,101277.41
2022-10-07T21:45:15.935Z,101276.75
2022-10-07T21:48:19.604Z,101274.44
2022-10-07T21:51:23.967Z,101277.31
2022-10-07T21:54:27.674Z,101279.28
2022-10-07T21:57:30.913Z,101271.44
2022-10-07T22:00:35.091Z,101258.81
2022-10-07T22:03:39.144Z,101252.28
2022-10-07T22:07:00.650Z,101259.16
2022-10-07T22:10:04.299Z,101258.38
2022-10-07T22:13:07.834Z,101261.31
2022-10-07T22:16:17.338Z,101259.75
2022-10-07T22:19:20.548Z,101259.88
2022-10-07T22:22:25.204Z,101253.63
2022-10-07T22:25:28.409Z,101240.56
2022-10-07T22:28:31.907Z,101237.47
2022-10-07T22:31:35.757Z,101236.84
2022-10-07T22:34:57.798Z,101243.25
2022-10-07T22:38:03.140Z,101242.66
2022-10-07T22:41:09.027Z,101231.34
2022-10-07T22:44:12.115Z,101242.25
2022-10-07T22:47:21.284Z,101233.41
2022-10-07T22:50:24.598Z,101219.34
2022-10-07T22:53:28.097Z,101224.56
2022-10-07T22:56:31.404Z,101225.56
2022-10-07T22:59:36.122Z,101225.62
2022-10-07T23:02:39.463Z,101227.31
2022-10-07T23:05:44.017Z,101225.72
2022-10-07T23:08:48.715Z,101217.97
2022-10-07T23:11:52.248Z,101218.97
2022-10-07T23:14:55.673Z,101220.91
2022-10-07T23:17:59.123Z,101229.22
2022-10-07T23:21:03.985Z,101213.44
2022-10-07T23:24:08.493Z,101222.16
2022-10-07T23:27:14.103Z,101227.25
2022-10-07T23:30:21.262Z,101223.56
2022-10-07T23:33:24.604Z,101209.13
2022-10-07T23:36:28.453Z,101225.28
2022-10-07T23:39:34.043Z,101215.66
2022-10-07T23:42:37.410Z,101207.13
2022-10-07T23:45:45.606Z,101211.12
2022-10-07T23:48:49.842Z,101211.47
2022-10-07T23:51:53.629Z,101202.75
2022-10-07T23:54:56.987Z,101210.78
2022-10-07T23:58:02.073Z,101211.03
